This is the latest recevied weather packets stored in our database for station/object GW7204. If no packets are shown the sender has not sent any weather packets the latest 10 day(s).
| Time | Temp. | Humidity | Pressure | Rain* | Wind** | Luminosity | Snow |
|---|---|---|---|---|---|---|---|
| 1777322919 | 25° C | 53% | 1014.5 hPa | 0 mm | - | - | - |
| 1777318247 | 26.67° C | 49% | 1014.9 hPa | 0 mm | - | - | - |
| 1777314287 | 25.56° C | 51% | 1015.9 hPa | 0 mm | - | - | - |
| 1777313213 | 25° C | 50% | 1016.2 hPa | 0 mm | - | - | - |
| 1777307091 | 22.78° C | 58% | 1017.2 hPa | 0 mm | - | - | - |
| 1777305250 | 20.56° C | 64% | 1017.6 hPa | 0 mm | - | - | - |
| 1777303133 | 18.89° C | 67% | 1017.9 hPa | 0 mm | - | - | - |
| 1777302731 | 18.89° C | 67% | 1017.9 hPa | 0 mm | - | - | - |
| 1777301295 | 17.78° C | 71% | 1017.6 hPa | 0 mm | - | - | - |
| 1777300948 | 17.22° C | 71% | 1017.9 hPa | 0 mm | - | - | - |
| 1777300590 | 16.67° C | 73% | 1017.6 hPa | 0 mm | - | - | - |
| 1777297734 | 14.44° C | 83% | 1018.2 hPa | 0 mm | - | - | - |
| 1777297359 | 13.89° C | 84% | 1018.2 hPa | 0 mm | - | - | - |
| 1777296286 | 12.22° C | 88% | 1018.2 hPa | 0 mm | - | - | - |
| 1777295563 | 11.11° C | 98% | 1018.6 hPa | 0 mm | - | - | - |
| 1777291238 | 7.78° C | 99% | 1018.2 hPa | 0 mm | - | - | - |
| 1777289802 | 7.22° C | 99% | 1018.2 hPa | 0 mm | - | - | - |
| 1777285834 | 5.56° C | 99% | 1018.2 hPa | 0 mm | - | - | - |
| 1777283679 | 5.56° C | 99% | 1018.2 hPa | 0 mm | - | - | - |
| 1777278630 | 6.67° C | 99% | 1017.9 hPa | 0 mm | - | - | - |
| 1777276462 | 6.67° C | 99% | 1017.2 hPa | 0 mm | - | - | - |
| 1777274670 | 7.22° C | 99% | 1017.6 hPa | 0 mm | - | - | - |
| 1777274309 | 7.22° C | 99% | 1017.2 hPa | 0 mm | - | - | - |
| 1777273609 | 7.78° C | 99% | 1017.6 hPa | 0 mm | - | - | - |
| 1777271065 | 8.33° C | 99% | 1017.9 hPa | 0 mm | - | - | - |
* Rain since midnight (hover to see other rain measurements)
** Current wind speed in m/s (hover to see current wind gust speed)